Time;durP1;ratioP1;P1;durP2;ratioP2;P2;SDS_P1;SDS_P2;PMS_P1;PMS_P2;Temp;Humidity;BMP_temperature;BMP_pressure;BME280_temperature;BME280_humidity;BME280_pressure;Samples;Min_cycle;Max_cycle;Signal;HPM_P1;HPM_P2
2021/09/11 00:00:24;;;;;;;29.10;26.10;;;;;;;11.59;86.22;99099.41;111206;1204;65434;-82
2021/09/11 00:03:04;;;;;;;29.20;25.40;;;;;;;11.59;86.15;99099.43;111197;1204;61809;-81
2021/09/11 00:05:31;;;;;;;30.70;26.00;;;;;;;11.57;86.13;99099.40;111223;1203;63933;-83
2021/09/11 00:07:58;;;;;;;27.80;24.60;;;;;;;11.54;86.10;99099.95;111279;1204;62045;-83
2021/09/11 00:10:25;;;;;;;29.90;25.00;;;;;;;11.52;86.16;99097.98;111222;1204;61842;-83
2021/09/11 00:12:52;;;;;;;29.40;25.10;;;;;;;11.49;86.24;99097.30;111233;1204;67789;-83
2021/09/11 00:15:19;;;;;;;26.20;23.30;;;;;;;11.47;86.39;99092.41;111212;1203;61892;-81
2021/09/11 00:17:49;;;;;;;28.00;24.90;;;;;;;11.48;86.57;99094.16;111193;1198;62453;-82
2021/09/11 00:20:16;;;;;;;27.80;25.00;;;;;;;11.46;86.58;99095.73;111282;1204;62465;-84
2021/09/11 00:22:42;;;;;;;29.10;25.70;;;;;;;11.42;86.67;99089.55;111320;1195;61817;-83
2021/09/11 00:25:10;;;;;;;30.80;25.10;;;;;;;11.39;86.89;99090.81;111291;1204;68033;-82
2021/09/11 00:27:36;;;;;;;28.20;23.10;;;;;;;11.36;86.79;99090.37;111276;1205;61896;-84
2021/09/11 00:30:04;;;;;;;25.70;23.10;;;;;;;11.32;86.80;99090.23;111436;1204;63930;-83
2021/09/11 00:32:31;;;;;;;25.70;22.30;;;;;;;11.29;87.02;99090.79;111288;1199;61892;-84
2021/09/11 00:34:57;;;;;;;26.70;21.60;;;;;;;11.29;87.25;99094.20;111341;1204;61854;-83
2021/09/11 00:37:24;;;;;;;28.80;21.40;;;;;;;11.29;87.44;99090.98;111170;1204;67687;-86
2021/09/11 00:39:51;;;;;;;24.80;20.40;;;;;;;11.28;87.70;99089.79;111243;1204;61915;-84
2021/09/11 00:42:18;;;;;;;22.20;19.90;;;;;;;11.28;88.12;99085.74;111230;1204;62698;-82
2021/09/11 00:44:44;;;;;;;22.00;19.60;;;;;;;11.27;87.99;99085.83;111206;1204;61898;-82
2021/09/11 00:47:11;;;;;;;23.10;20.70;;;;;;;11.26;88.05;99087.63;111265;1197;61822;-82
2021/09/11 00:49:37;;;;;;;25.30;19.80;;;;;;;11.27;88.23;99087.60;111254;1205;66493;-82
2021/09/11 00:52:04;;;;;;;23.90;19.60;;;;;;;11.27;88.28;99087.39;111257;1204;61893;-82
2021/09/11 00:54:31;;;;;;;20.90;18.60;;;;;;;11.28;88.37;99085.93;111224;1204;64729;-82
2021/09/11 00:56:58;;;;;;;21.60;18.40;;;;;;;11.27;88.37;99081.02;111214;1196;61886;-82
2021/09/11 00:59:25;;;;;;;23.40;19.40;;;;;;;11.25;88.50;99084.73;111226;1204;61812;-82
2021/09/11 01:01:51;;;;;;;20.00;16.60;;;;;;;11.22;88.37;99087.54;111187;1204;65222;-81
2021/09/11 01:04:18;;;;;;;19.80;17.70;;;;;;;11.17;88.28;99086.63;111252;1204;67885;-82
2021/09/11 01:06:44;;;;;;;22.20;18.60;;;;;;;11.14;88.41;99085.05;111241;1204;62321;-83
2021/09/11 01:09:14;;;;;;;21.50;17.40;;;;;;;11.11;88.49;99082.06;111174;1204;62646;-83
2021/09/11 01:11:41;;;;;;;18.70;16.70;;;;;;;11.11;88.41;99083.85;111152;1198;61913;-83
2021/09/11 01:14:08;;;;;;;20.90;17.30;;;;;;;11.11;88.50;99082.77;111235;1204;66636;-83
2021/09/11 01:16:34;;;;;;;18.70;16.80;;;;;;;11.11;88.55;99083.30;111233;1204;61912;-82
2021/09/11 01:19:01;;;;;;;20.10;16.10;;;;;;;11.11;88.46;99084.60;111193;1203;63853;-83
2021/09/11 01:21:28;;;;;;;22.60;18.10;;;;;;;11.10;88.55;99083.77;111234;1201;61855;-83
2021/09/11 01:23:55;;;;;;;17.30;15.60;;;;;;;11.10;88.69;99088.77;111230;1204;61816;-83
2021/09/11 01:26:21;;;;;;;22.10;19.80;;;;;;;11.09;88.52;99088.46;111259;1204;76425;-83
2021/09/11 01:28:48;;;;;;;20.80;18.50;;;;;;;11.08;88.59;99085.27;111260;1205;61963;-83
2021/09/11 01:31:15;;;;;;;21.60;19.00;;;;;;;11.06;88.43;99090.05;111209;1204;63952;-83
2021/09/11 01:33:41;;;;;;;20.50;18.50;;;;;;;11.01;88.47;99091.10;111167;1195;61809;-82
2021/09/11 01:36:08;;;;;;;19.50;17.40;;;;;;;10.96;88.45;99092.70;111259;1204;61927;-83
2021/09/11 01:38:35;;;;;;;19.90;17.70;;;;;;;10.90;88.41;99089.02;111238;1204;65417;-81
2021/09/11 01:41:01;;;;;;;19.50;17.40;;;;;;;10.86;88.36;99084.69;111237;1204;61916;-84
2021/09/11 01:43:35;;;;;;;20.70;18.40;;;;;;;10.80;88.40;99086.46;111223;1204;62595;-83
2021/09/11 01:46:05;;;;;;;18.50;16.60;;;;;;;10.74;88.48;99086.00;111251;1200;61942;-84
2021/09/11 01:48:32;;;;;;;19.70;16.80;;;;;;;10.70;88.61;99088.73;111268;1203;61892;-84
2021/09/11 01:50:59;;;;;;;19.40;17.40;;;;;;;10.66;88.52;99089.70;111256;1204;66782;-83
2021/09/11 01:53:25;;;;;;;19.90;17.80;;;;;;;10.64;88.73;99090.41;111265;1204;61823;-83
2021/09/11 01:55:52;;;;;;;20.70;18.30;;;;;;;10.63;88.78;99092.95;111249;1204;63900;-83
2021/09/11 01:58:19;;;;;;;21.90;19.40;;;;;;;10.62;88.93;99091.92;111251;1204;61915;-83
2021/09/11 02:00:45;;;;;;;19.80;17.70;;;;;;;10.62;89.01;99091.24;111230;1198;61841;-83
2021/09/11 02:03:12;;;;;;;21.40;19.10;;;;;;;10.61;88.97;99091.27;111225;1204;66881;-83
2021/09/11 02:05:39;;;;;;;23.30;20.80;;;;;;;10.60;88.90;99091.85;111268;1204;61894;-83
2021/09/11 02:08:07;;;;;;;24.10;21.70;;;;;;;10.59;88.85;99091.62;111192;1204;64903;-85
2021/09/11 02:10:34;;;;;;;23.70;21.50;;;;;;;10.58;89.07;99090.02;111224;1204;61868;-84
2021/09/11 02:13:02;;;;;;;21.00;18.90;;;;;;;10.58;89.00;99087.94;111259;1204;62568;-84
2021/09/11 02:15:28;;;;;;;21.10;18.60;;;;;;;10.57;88.97;99090.45;111266;1204;66515;-86
2021/09/11 02:17:55;;;;;;;19.40;17.40;;;;;;;10.57;89.10;99091.91;111266;1203;61941;-85
2021/09/11 02:20:21;;;;;;;23.30;17.60;;;;;;;10.57;89.22;99093.12;111216;1196;64941;-84
2021/09/11 02:22:48;;;;;;;18.40;16.70;;;;;;;10.57;89.17;99093.00;111256;1196;61896;-86
2021/09/11 02:25:15;;;;;;;18.90;17.00;;;;;;;10.55;89.19;99092.02;111300;1196;61816;-86
2021/09/11 02:27:42;;;;;;;18.40;16.30;;;;;;;10.54;89.18;99093.71;111228;1203;65257;-86
2021/09/11 02:30:09;;;;;;;18.70;16.70;;;;;;;10.53;89.13;99087.00;111194;1205;61835;-82
2021/09/11 02:32:35;;;;;;;20.50;18.10;;;;;;;10.53;89.28;99088.08;111232;1204;64958;-82
2021/09/11 02:35:02;;;;;;;18.70;15.90;;;;;;;10.53;89.43;99085.04;111277;1203;61862;-83
2021/09/11 02:37:29;;;;;;;18.70;16.80;;;;;;;10.54;89.40;99084.09;111284;1199;61839;-83
2021/09/11 02:39:55;;;;;;;17.70;15.80;;;;;;;10.53;89.24;99087.86;111266;1204;66768;-81
2021/09/11 02:42:22;;;;;;;15.80;14.20;;;;;;;10.50;89.25;99088.23;111268;1204;61872;-81
2021/09/11 02:44:49;;;;;;;16.40;13.20;;;;;;;10.46;89.14;99088.52;111217;1204;65129;-80
2021/09/11 02:47:15;;;;;;;14.90;13.40;;;;;;;10.43;89.34;99086.59;111239;1203;61856;-80
2021/09/11 02:49:42;;;;;;;13.50;12.20;;;;;;;10.41;89.39;99086.91;111203;1203;61813;-80
2021/09/11 02:52:08;;;;;;;13.70;12.20;;;;;;;10.39;89.25;99088.30;111249;1204;65429;-80
2021/09/11 02:54:35;;;;;;;14.30;12.90;;;;;;;10.33;89.07;99089.34;111259;1204;61884;-80
2021/09/11 02:57:02;;;;;;;14.70;13.20;;;;;;;10.29;89.21;99091.02;111209;1203;63577;-80
2021/09/11 02:59:29;;;;;;;15.50;13.10;;;;;;;10.27;89.40;99093.45;111446;1205;61900;-83
2021/09/11 03:01:55;;;;;;;16.50;14.80;;;;;;;10.24;89.58;99091.68;111168;1200;61793;-82
2021/09/11 03:04:22;;;;;;;15.80;13.90;;;;;;;10.22;89.59;99091.84;111207;1196;66821;-82
2021/09/11 03:06:48;;;;;;;14.70;13.10;;;;;;;10.19;89.67;99089.70;111339;1204;61878;-82
2021/09/11 03:09:15;;;;;;;19.10;16.30;;;;;;;10.15;89.62;99092.06;111131;1205;63969;-82
2021/09/11 03:11:42;;;;;;;16.40;14.60;;;;;;;10.10;89.65;99096.48;111178;1196;61803;-82
2021/09/11 03:14:08;;;;;;;16.20;14.40;;;;;;;10.05;89.91;99090.03;111205;1203;61969;-82
2021/09/11 03:16:35;;;;;;;17.70;15.80;;;;;;;10.05;90.27;99085.64;111238;1204;65155;-81
2021/09/11 03:19:02;;;;;;;16.60;14.20;;;;;;;10.04;90.22;99082.34;111251;1205;61869;-85
2021/09/11 03:21:28;;;;;;;14.60;13.20;;;;;;;10.02;90.17;99084.35;111253;1204;63798;-82
2021/09/11 03:23:55;;;;;;;15.80;14.20;;;;;;;10.01;90.12;99085.70;111237;1204;61914;-83
2021/09/11 03:26:21;;;;;;;18.00;14.90;;;;;;;9.99;90.22;99084.58;111302;1199;61742;-84
2021/09/11 03:28:48;;;;;;;15.50;13.90;;;;;;;9.98;90.34;99083.06;111357;1200;66810;-84
2021/09/11 03:31:15;;;;;;;19.40;14.00;;;;;;;9.97;90.40;99075.85;111565;1197;61897;-84
2021/09/11 03:33:41;;;;;;;13.10;11.70;;;;;;;9.97;90.35;99071.54;111283;1203;64680;-85
2021/09/11 03:36:08;;;;;;;15.00;13.30;;;;;;;9.97;90.46;99072.80;111460;1203;61883;-84
2021/09/11 03:38:34;;;;;;;15.10;13.60;;;;;;;9.98;90.45;99073.60;111620;1200;61850;-86
2021/09/11 03:41:01;;;;;;;14.00;12.50;;;;;;;10.00;90.40;99076.67;111286;1204;66805;-86
2021/09/11 03:43:28;;;;;;;19.40;13.50;;;;;;;10.02;90.58;99074.81;111217;1204;61894;-84
2021/09/11 03:45:54;;;;;;;16.90;13.10;;;;;;;10.03;90.60;99074.04;111194;1204;63954;-87
2021/09/11 03:48:21;;;;;;;14.70;13.20;;;;;;;10.06;90.58;99068.30;111225;1204;61869;-84
2021/09/11 03:50:48;;;;;;;13.90;12.10;;;;;;;10.09;90.59;99069.90;111238;1204;61760;-84
2021/09/11 03:53:14;;;;;;;16.20;14.50;;;;;;;10.11;90.63;99067.65;111255;1204;66687;-84
2021/09/11 03:55:41;;;;;;;14.90;13.40;;;;;;;10.11;90.88;99069.78;111237;1196;61992;-84
2021/09/11 03:58:08;;;;;;;16.80;13.80;;;;;;;10.10;90.80;99069.10;111259;1204;63876;-84
2021/09/11 04:00:36;;;;;;;14.20;12.60;;;;;;;10.11;90.92;99067.30;111250;1196;61998;-84
2021/09/11 04:03:03;;;;;;;16.20;13.20;;;;;;;10.10;90.98;99070.89;111241;1206;61901;-83
2021/09/11 04:05:29;;;;;;;15.00;13.30;;;;;;;10.11;91.08;99071.91;111271;1205;66774;-84
2021/09/11 04:07:56;;;;;;;15.50;12.80;;;;;;;10.12;91.10;99071.48;111295;1204;61831;-83
2021/09/11 04:10:23;;;;;;;14.80;13.30;;;;;;;10.13;91.02;99075.17;111267;1204;63993;-84
2021/09/11 04:12:49;;;;;;;15.00;13.40;;;;;;;10.13;90.98;99071.96;111256;1198;61816;-84
2021/09/11 04:15:16;;;;;;;14.90;13.20;;;;;;;10.13;90.96;99074.98;111262;1200;61901;-84
2021/09/11 04:17:43;;;;;;;13.50;12.20;;;;;;;10.13;91.06;99075.86;111245;1204;66918;-84
2021/09/11 04:20:10;;;;;;;14.20;12.80;;;;;;;10.15;90.87;99078.39;111094;1204;61866;-84
2021/09/11 04:22:36;;;;;;;16.00;13.80;;;;;;;10.16;90.75;99077.27;111089;1197;63658;-84
2021/09/11 04:25:04;;;;;;;15.60;13.90;;;;;;;10.19;90.71;99078.67;111199;1204;61888;-84
2021/09/11 04:27:31;;;;;;;16.50;14.90;;;;;;;10.23;90.62;99077.20;111274;1197;60748;-84
2021/09/11 04:29:58;;;;;;;17.00;14.80;;;;;;;10.27;90.47;99079.43;111302;1204;66919;-83
2021/09/11 04:32:25;;;;;;;14.90;13.10;;;;;;;10.32;90.21;99075.40;111236;1204;61760;-82
2021/09/11 04:34:51;;;;;;;14.50;13.00;;;;;;;10.32;89.98;99076.45;111192;1204;64018;-83
2021/09/11 04:37:18;;;;;;;13.60;12.20;;;;;;;10.31;89.84;99076.17;111252;1204;61914;-84
2021/09/11 04:39:44;;;;;;;13.90;12.60;;;;;;;10.32;89.78;99077.67;111252;1200;61802;-84
2021/09/11 04:42:11;;;;;;;13.50;12.20;;;;;;;10.40;89.73;99076.52;111252;1196;66806;-83
2021/09/11 04:44:38;;;;;;;12.40;11.20;;;;;;;10.52;89.53;99076.42;111292;1206;61844;-84
2021/09/11 04:47:05;;;;;;;12.10;10.90;;;;;;;10.71;89.07;99074.81;111280;1205;65041;-84
2021/09/11 04:49:31;;;;;;;13.80;12.40;;;;;;;10.88;88.69;99077.20;111221;1197;61868;-84
2021/09/11 04:51:58;;;;;;;15.10;13.60;;;;;;;10.96;88.75;99078.64;111251;1200;61976;-85
2021/09/11 04:54:25;;;;;;;16.90;15.10;;;;;;;11.10;88.55;99079.45;111281;1204;65441;-85
2021/09/11 04:56:51;;;;;;;15.20;13.60;;;;;;;11.49;87.82;99078.95;111226;1197;67831;-84
2021/09/11 04:59:18;;;;;;;15.10;13.40;;;;;;;11.86;87.27;99081.36;111282;1204;63959;-83
2021/09/11 05:01:44;;;;;;;16.30;14.50;;;;;;;12.21;86.47;99082.08;111257;1196;61885;-82
2021/09/11 05:04:11;;;;;;;14.90;13.40;;;;;;;12.57;85.67;99083.73;111291;1195;61790;-82
2021/09/11 05:06:38;;;;;;;16.00;14.50;;;;;;;12.87;84.95;99083.79;111225;1200;66626;-84
2021/09/11 05:09:04;;;;;;;16.10;14.50;;;;;;;13.18;84.37;99083.27;111293;1204;61875;-83
2021/09/11 05:11:31;;;;;;;16.60;14.90;;;;;;;13.43;83.77;99083.70;111270;1204;63627;-82
2021/09/11 05:13:58;;;;;;;16.30;14.60;;;;;;;13.74;83.17;99085.21;111250;1204;61998;-84
2021/09/11 05:16:24;;;;;;;18.10;16.00;;;;;;;14.04;82.81;99084.63;111279;1205;61928;-82
2021/09/11 05:18:51;;;;;;;18.90;17.00;;;;;;;14.34;82.61;99084.69;111227;1196;66833;-82
2021/09/11 05:21:17;;;;;;;18.40;16.40;;;;;;;14.51;82.18;99078.67;111222;1203;61845;-82
2021/09/11 05:23:44;;;;;;;17.70;15.80;;;;;;;14.62;81.83;99083.75;111264;1204;63712;-82
2021/09/11 05:26:11;;;;;;;17.60;14.70;;;;;;;14.77;81.51;99078.73;111284;1204;61841;-82
2021/09/11 05:28:38;;;;;;;15.80;14.20;;;;;;;14.94;81.45;99076.36;111252;1202;61979;-82
2021/09/11 05:31:04;;;;;;;16.20;14.50;;;;;;;15.19;81.09;99081.31;111261;1205;66799;-84
2021/09/11 05:33:31;;;;;;;16.10;14.50;;;;;;;15.43;80.73;99081.95;111263;1205;61782;-82
2021/09/11 05:35:58;;;;;;;16.80;15.00;;;;;;;15.66;80.29;99083.72;111279;1204;62630;-81
2021/09/11 05:38:24;;;;;;;17.90;16.20;;;;;;;15.95;80.00;99086.80;111249;1196;61877;-81
2021/09/11 05:40:51;;;;;;;22.70;20.40;;;;;;;16.20;79.70;99083.17;111298;1204;61906;-82
2021/09/11 05:43:18;;;;;;;22.90;20.70;;;;;;;16.42;79.16;99083.15;111256;1204;65458;-83
2021/09/11 05:45:44;;;;;;;26.20;23.50;;;;;;;16.56;78.69;99082.59;111306;1204;61916;-83
2021/09/11 05:48:11;;;;;;;29.10;24.60;;;;;;;16.62;78.14;99082.20;111300;1205;64463;-82
2021/09/11 05:50:38;;;;;;;28.60;25.50;;;;;;;16.69;77.77;99082.52;111285;1197;61899;-86
2021/09/11 05:53:04;;;;;;;32.40;27.10;;;;;;;16.79;77.74;99084.09;111248;1200;61902;-84
2021/09/11 05:55:31;;;;;;;36.40;28.90;;;;;;;16.95;77.53;99080.86;111268;1206;66613;-85
2021/09/11 05:57:58;;;;;;;37.00;29.60;;;;;;;17.13;77.30;99082.30;111311;1196;61781;-85
2021/09/11 06:00:25;;;;;;;37.20;29.40;;;;;;;17.26;76.32;99084.07;111274;1204;63959;-84
2021/09/11 06:02:51;;;;;;;38.90;30.40;;;;;;;17.29;76.15;99082.77;111230;1203;61953;-84
2021/09/11 06:05:18;;;;;;;36.20;29.00;;;;;;;17.43;76.04;99080.52;111256;1199;61926;-84
2021/09/11 06:07:45;;;;;;;32.20;24.70;;;;;;;17.63;75.68;99077.20;111317;1204;75535;-83
2021/09/11 06:10:12;;;;;;;31.90;25.20;;;;;;;17.78;75.27;99081.24;111284;1205;61845;-85
2021/09/11 06:12:39;;;;;;;27.60;22.70;;;;;;;17.88;74.77;99083.89;111257;1206;62656;-83
2021/09/11 06:15:07;;;;;;;24.30;19.40;;;;;;;17.90;74.30;99082.41;111249;1205;61899;-83
2021/09/11 06:17:34;;;;;;;26.00;19.50;;;;;;;17.86;73.98;99084.98;111320;1204;61859;-83
2021/09/11 06:20:02;;;;;;;20.00;17.80;;;;;;;17.86;73.64;99084.25;111258;1204;65721;-84
2021/09/11 06:22:28;;;;;;;18.80;16.00;;;;;;;17.87;73.64;99086.11;111266;1205;62033;-83
2021/09/11 06:24:55;;;;;;;21.90;16.20;;;;;;;17.82;73.42;99088.38;111299;1204;63593;-84
2021/09/11 06:27:22;;;;;;;20.40;16.80;;;;;;;17.65;73.67;99087.58;111265;1204;61769;-84
2021/09/11 06:29:48;;;;;;;18.50;15.00;;;;;;;17.44;73.91;99089.76;111261;1196;61935;-84
2021/09/11 06:32:15;;;;;;;17.50;15.20;;;;;;;17.28;74.32;99094.31;111245;1205;66803;-82
2021/09/11 06:34:41;;;;;;;18.20;15.40;;;;;;;17.15;74.49;99093.73;111419;1204;61867;-85
2021/09/11 06:37:08;;;;;;;18.40;15.10;;;;;;;17.04;74.54;99096.41;111556;1196;63981;-85
2021/09/11 06:39:35;;;;;;;18.10;15.20;;;;;;;16.94;74.70;99096.07;111580;1204;62022;-85
2021/09/11 06:42:02;;;;;;;18.50;16.60;;;;;;;16.85;74.90;99098.44;111415;1204;61770;-84
2021/09/11 06:44:28;;;;;;;16.50;14.80;;;;;;;16.80;75.09;99097.16;111363;1196;66773;-84
2021/09/11 06:46:55;;;;;;;18.40;12.50;;;;;;;16.76;75.46;99100.36;111293;1204;61825;-83
2021/09/11 06:49:22;;;;;;;12.60;10.80;;;;;;;16.72;75.65;99096.40;111282;1204;62624;-84
2021/09/11 06:51:49;;;;;;;11.20;10.00;;;;;;;16.71;75.51;99097.73;111236;1204;61859;-88
2021/09/11 06:54:15;;;;;;;9.90;8.90;;;;;;;16.73;75.51;99093.63;111243;1196;61894;-83
2021/09/11 06:56:42;;;;;;;11.00;9.30;;;;;;;16.78;75.20;99098.38;111267;1204;65594;-85
2021/09/11 06:59:08;;;;;;;15.40;10.10;;;;;;;16.80;74.97;99097.65;111271;1204;61887;-84
2021/09/11 07:01:35;;;;;;;11.50;9.80;;;;;;;16.84;75.11;99099.31;111277;1204;62449;-85
2021/09/11 07:04:02;;;;;;;11.20;9.80;;;;;;;16.85;75.04;99098.11;111261;1204;61857;-85
2021/09/11 07:06:28;;;;;;;10.70;9.70;;;;;;;16.90;75.08;99096.98;111274;1199;61838;-85
2021/09/11 07:08:55;;;;;;;11.20;8.70;;;;;;;16.98;75.05;99097.86;111254;1204;65176;-85
2021/09/11 07:11:21;;;;;;;10.60;9.60;;;;;;;17.01;74.80;99097.52;111299;1204;61862;-84
2021/09/11 07:13:48;;;;;;;10.30;9.30;;;;;;;17.05;74.74;99095.51;111278;1198;62626;-85
2021/09/11 07:16:15;;;;;;;11.80;9.90;;;;;;;17.09;74.82;99095.20;111303;1204;61874;-85
2021/09/11 07:18:42;;;;;;;11.40;9.80;;;;;;;17.15;74.91;99093.61;111293;1204;61844;-84
2021/09/11 07:21:08;;;;;;;11.90;9.50;;;;;;;17.25;75.19;99095.02;111291;1204;65470;-86
2021/09/11 07:23:36;;;;;;;10.30;9.20;;;;;;;17.33;75.07;99090.99;111297;1204;61863;-86
2021/09/11 07:26:03;;;;;;;10.00;8.90;;;;;;;17.44;75.40;99095.14;111215;1204;62709;-85
2021/09/11 07:28:29;;;;;;;10.70;8.60;;;;;;;17.55;74.93;99096.52;111234;1204;61818;-85
2021/09/11 07:30:56;;;;;;;11.40;9.40;;;;;;;17.66;75.16;99097.46;111208;1203;61872;-82
2021/09/11 07:33:23;;;;;;;11.40;9.50;;;;;;;17.79;75.27;99100.03;111226;1204;66776;-82
2021/09/11 07:35:50;;;;;;;10.60;9.60;;;;;;;17.89;75.23;99100.87;111245;1204;61866;-82
2021/09/11 07:38:16;;;;;;;11.90;9.50;;;;;;;17.99;75.23;99102.08;111235;1204;62653;-82
2021/09/11 07:40:43;;;;;;;11.40;9.60;;;;;;;18.08;75.17;99101.51;111302;1196;62050;-82
2021/09/11 07:43:11;;;;;;;10.80;9.50;;;;;;;18.20;75.09;99103.58;111180;1204;61915;-82
2021/09/11 07:45:39;;;;;;;12.70;9.90;;;;;;;18.31;75.03;99103.96;111240;1196;66809;-83
2021/09/11 07:48:07;;;;;;;12.00;9.70;;;;;;;18.40;74.73;99103.67;111294;1204;61890;-84
2021/09/11 07:50:36;;;;;;;10.80;8.90;;;;;;;18.51;75.17;99104.23;111212;1204;63976;-84
2021/09/11 07:53:03;;;;;;;9.40;8.40;;;;;;;18.63;74.99;99105.00;111340;1204;61882;-84
2021/09/11 07:55:31;;;;;;;12.20;8.70;;;;;;;18.73;74.54;99104.94;111225;1204;61858;-85
2021/09/11 07:57:58;;;;;;;11.10;9.80;;;;;;;18.82;74.32;99102.56;111227;1204;66949;-83
2021/09/11 08:00:26;;;;;;;13.40;10.00;;;;;;;18.90;73.82;99101.33;111238;1204;61870;-83
2021/09/11 08:02:53;;;;;;;10.90;9.50;;;;;;;19.00;73.89;99101.89;111251;1204;62408;-84
2021/09/11 08:05:19;;;;;;;12.60;9.70;;;;;;;19.13;73.71;99098.10;111229;1204;61892;-83
2021/09/11 08:07:46;;;;;;;10.40;9.40;;;;;;;19.21;73.31;99097.38;111266;1198;61816;-83
2021/09/11 08:10:13;;;;;;;11.50;9.60;;;;;;;19.26;73.18;99099.77;111202;1204;66821;-83
2021/09/11 08:12:43;;;;;;;12.80;9.90;;;;;;;19.35;73.16;99096.34;111339;1204;61781;-92
2021/09/11 08:15:30;;;;;;;10.30;9.20;;;;;;;19.44;72.68;99095.60;111418;1204;64991;-83
2021/09/11 08:17:57;;;;;;;12.20;9.40;;;;;;;19.50;72.60;99094.80;111248;1196;61841;-82
2021/09/11 08:20:24;;;;;;;12.30;9.10;;;;;;;19.58;72.63;99087.53;111231;1204;60909;-85
2021/09/11 08:22:50;;;;;;;11.70;9.80;;;;;;;19.69;72.61;99087.89;111161;1204;65322;-85
2021/09/11 08:25:17;;;;;;;20.20;10.20;;;;;;;19.79;72.21;99089.70;111244;1204;61888;-84
2021/09/11 08:27:44;;;;;;;12.10;8.80;;;;;;;19.90;72.33;99091.48;111136;1197;63963;-84
2021/09/11 08:30:11;;;;;;;10.70;8.10;;;;;;;20.00;71.96;99088.80;111227;1204;61896;-85
2021/09/11 08:32:39;;;;;;;9.30;8.30;;;;;;;20.10;71.46;99090.11;111199;1203;61770;-84
2021/09/11 08:35:08;;;;;;;11.60;8.20;;;;;;;20.23;71.50;99090.04;111285;1204;66761;-84
2021/09/11 08:37:36;;;;;;;11.60;9.00;;;;;;;20.35;71.08;99087.65;111238;1196;61930;-84
2021/09/11 08:40:03;;;;;;;10.60;8.00;;;;;;;20.44;70.78;99083.45;111233;1204;63680;-84
2021/09/11 08:42:30;;;;;;;9.20;8.20;;;;;;;20.54;70.78;99083.23;111209;1204;61819;-82
2021/09/11 08:44:58;;;;;;;9.10;7.60;;;;;;;20.67;70.74;99083.15;111316;1204;61923;-83
2021/09/11 08:47:25;;;;;;;9.30;8.30;;;;;;;20.79;70.37;99082.20;111213;1203;66774;-83
2021/09/11 08:49:51;;;;;;;10.40;8.70;;;;;;;20.92;70.07;99083.55;111247;1204;61938;-83
2021/09/11 08:52:18;;;;;;;13.30;10.30;;;;;;;21.06;70.28;99080.52;111239;1204;62574;-84
2021/09/11 08:54:46;;;;;;;16.40;11.00;;;;;;;21.20;69.88;99078.53;111285;1197;61902;-84
2021/09/11 08:57:23;;;;;;;11.40;8.90;;;;;;;21.31;69.43;99077.45;111254;1204;61844;-84
2021/09/11 08:59:49;;;;;;;10.90;8.90;;;;;;;21.43;69.02;99075.48;111261;1196;67772;-84
2021/09/11 09:02:19;;;;;;;15.30;8.90;;;;;;;21.55;68.66;99076.50;111167;1204;61864;-83
2021/09/11 09:04:58;;;;;;;11.70;8.30;;;;;;;21.68;68.17;99076.14;111281;1204;63940;-82
2021/09/11 09:07:41;;;;;;;10.60;7.60;;;;;;;21.81;68.00;99072.04;111253;1203;61865;-84
2021/09/11 09:10:14;;;;;;;11.50;8.10;;;;;;;21.97;67.75;99068.71;111209;1203;61892;-83
2021/09/11 09:12:46;;;;;;;11.20;8.30;;;;;;;22.07;67.05;99064.75;111315;1204;66729;-83
2021/09/11 09:15:16;;;;;;;12.80;8.60;;;;;;;22.18;66.73;99065.23;111174;1204;61893;-83
2021/09/11 09:17:47;;;;;;;;;;;;;;;22.31;66.55;99061.61;111281;1204;64981;-82
2021/09/11 09:20:23;;;;;;;8.30;7.50;;;;;;;22.42;66.55;99062.30;111235;1204;61820;-82
2021/09/11 09:23:17;;;;;;;9.50;7.90;;;;;;;22.54;66.53;99061.21;111160;1203;61815;-82
2021/09/11 09:25:45;;;;;;;9.10;7.50;;;;;;;22.68;65.80;99057.98;111358;1196;67324;-85
2021/09/11 09:28:14;;;;;;;9.10;7.70;;;;;;;22.78;65.30;99058.51;111165;1204;61786;-83
2021/09/11 09:30:47;;;;;;;8.10;7.00;;;;;;;22.88;64.73;99058.04;111226;1204;63990;-83
2021/09/11 09:33:30;;;;;;;10.90;7.40;;;;;;;22.98;64.17;99057.54;111285;1204;61926;-86
2021/09/11 09:36:01;;;;;;;10.50;6.60;;;;;;;23.09;63.82;99055.36;111215;1196;61861;-87
2021/09/11 09:38:28;;;;;;;9.40;6.10;;;;;;;23.21;63.79;99057.06;111285;1204;66820;-85
2021/09/11 09:40:56;;;;;;;8.40;5.50;;;;;;;23.30;62.60;99053.46;111302;1197;62002;-85
2021/09/11 09:43:42;;;;;;;7.20;5.30;;;;;;;23.35;61.89;99052.70;111904;1198;64669;-85
2021/09/11 09:46:13;;;;;;;6.70;5.50;;;;;;;23.45;61.39;99049.52;112170;1197;61876;-85
2021/09/11 09:48:42;;;;;;;9.10;4.70;;;;;;;23.53;61.05;99050.45;111516;1204;61906;-84
2021/09/11 09:51:17;;;;;;;5.00;4.20;;;;;;;23.63;60.20;99048.02;111531;1204;65459;-86
2021/09/11 09:53:48;;;;;;;6.10;3.90;;;;;;;23.68;58.24;99044.20;112186;1204;61893;-86
2021/09/11 09:56:15;;;;;;;7.10;4.20;;;;;;;23.71;57.96;99042.88;111475;1196;72574;-86
2021/09/11 09:58:43;;;;;;;5.60;4.20;;;;;;;23.78;57.72;99049.04;111206;1204;61908;-87
2021/09/11 10:01:11;;;;;;;6.80;4.10;;;;;;;23.88;57.47;99046.34;111192;1196;61896;-89
2021/09/11 10:03:38;;;;;;;7.00;4.20;;;;;;;23.97;57.21;99046.27;111132;1204;66797;-86
2021/09/11 10:06:12;;;;;;;8.10;4.30;;;;;;;24.03;57.05;99043.37;111183;1203;61772;-85
2021/09/11 10:08:52;;;;;;;8.20;3.90;;;;;;;24.14;57.04;99042.46;111165;1204;63689;-86
2021/09/11 10:11:19;;;;;;;6.60;3.70;;;;;;;24.22;56.41;99043.79;111155;1204;61895;-86
2021/09/11 10:14:01;;;;;;;8.70;3.50;;;;;;;24.29;55.25;99042.55;111205;1196;61808;-86
2021/09/11 10:16:38;;;;;;;4.10;3.40;;;;;;;24.32;54.33;99043.45;111243;1204;65153;-85
2021/09/11 10:19:19;;;;;;;6.80;3.30;;;;;;;24.35;53.89;99043.21;111244;1196;61914;-85
2021/09/11 10:21:50;;;;;;;4.80;3.10;;;;;;;24.40;53.59;99042.85;111297;1204;64017;-85
2021/09/11 10:24:23;;;;;;;7.20;3.40;;;;;;;24.45;51.67;99045.99;111286;1204;61894;-85
2021/09/11 10:26:53;;;;;;;5.50;2.90;;;;;;;24.48;50.13;99041.64;111267;1196;61917;-85
2021/09/11 10:29:35;;;;;;;6.10;2.90;;;;;;;24.52;49.44;99041.02;111188;1203;66844;-85
2021/09/11 10:32:11;;;;;;;4.50;3.70;;;;;;;24.59;49.99;99042.14;111232;1204;61842;-85
2021/09/11 10:34:53;;;;;;;6.20;3.10;;;;;;;24.65;49.20;99040.23;111303;1204;64002;-85
2021/09/11 10:37:26;;;;;;;2.60;2.40;;;;;;;24.64;47.57;99043.68;111347;1196;61877;-84
2021/09/11 10:40:14;;;;;;;6.10;2.40;;;;;;;24.67;47.23;99044.92;111186;1200;61895;-84
2021/09/11 10:43:19;;;;;;;4.40;2.80;;;;;;;24.71;46.40;99045.34;111271;1204;66684;-84
2021/09/11 10:46:02;;;;;;;2.50;2.20;;;;;;;24.77;46.27;99047.09;111182;1204;61862;-83
2021/09/11 10:48:43;;;;;;;5.00;2.80;;;;;;;24.85;46.77;99047.59;111219;1204;63968;-84
2021/09/11 10:51:36;;;;;;;5.00;2.40;;;;;;;24.91;45.85;99046.27;111248;1204;61815;-83
2021/09/11 10:54:07;;;;;;;3.60;2.30;;;;;;;24.95;44.72;99045.43;111237;1197;61924;-83
2021/09/11 10:56:36;;;;;;;7.20;2.70;;;;;;;24.99;44.60;99035.45;111217;1204;66496;-84
2021/09/11 10:59:17;;;;;;;3.00;2.20;;;;;;;25.04;44.28;99036.33;111289;1204;61895;-85
2021/09/11 11:01:56;;;;;;;3.00;2.30;;;;;;;25.10;44.57;99036.17;111317;1203;62618;-83
2021/09/11 11:04:25;;;;;;;2.50;2.30;;;;;;;25.17;44.85;99033.71;111236;1197;61816;-83
2021/09/11 11:06:54;;;;;;;7.00;2.60;;;;;;;25.23;44.77;99028.07;111275;1200;61892;-84
2021/09/11 11:09:21;;;;;;;3.20;2.40;;;;;;;25.28;44.45;99028.83;111260;1196;67720;-83
2021/09/11 11:11:49;;;;;;;4.70;2.30;;;;;;;25.31;43.35;99029.77;111291;1204;61887;-83
2021/09/11 11:14:17;;;;;;;5.40;3.20;;;;;;;25.29;42.64;99026.61;111312;1204;63789;-84
2021/09/11 11:16:54;;;;;;;4.70;3.10;;;;;;;25.29;43.01;99026.40;111236;1203;61909;-83
2021/09/11 11:19:24;;;;;;;4.40;3.10;;;;;;;25.33;43.37;99025.34;111432;1197;61938;-82